createdAt,value
2022-12-22T00:02:38.328Z,7.10
2022-12-22T00:05:32.005Z,7.10
2022-12-22T00:08:17.733Z,7.10
2022-12-22T00:11:03.110Z,7.10
2022-12-22T00:13:48.877Z,7.10
2022-12-22T00:16:35.667Z,7.10
2022-12-22T00:19:21.450Z,7.10
2022-12-22T00:22:06.838Z,7.10
2022-12-22T00:24:52.427Z,7.10
2022-12-22T00:27:47.959Z,7.20
2022-12-22T00:30:35.192Z,7.20
2022-12-22T00:33:24.086Z,7.10
2022-12-22T00:36:10.099Z,7.20
2022-12-22T00:38:55.476Z,7.20
2022-12-22T00:41:40.781Z,7.30
2022-12-22T00:44:26.204Z,7.20
2022-12-22T00:47:11.718Z,7.30
2022-12-22T00:50:03.094Z,7.30
2022-12-22T00:52:48.735Z,7.20
2022-12-22T00:55:37.511Z,7.30
2022-12-22T00:58:25.379Z,7.30
2022-12-22T01:01:10.824Z,7.30
2022-12-22T01:03:56.129Z,7.30
2022-12-22T01:06:45.556Z,7.30
2022-12-22T01:09:30.999Z,7.40
2022-12-22T01:12:16.291Z,7.40
2022-12-22T01:15:01.607Z,7.30
2022-12-22T01:17:46.944Z,7.30
2022-12-22T01:20:32.903Z,7.40
2022-12-22T01:23:19.644Z,7.30
2022-12-22T01:26:04.987Z,7.30
2022-12-22T01:28:50.574Z,7.30
2022-12-22T01:31:39.815Z,7.20
2022-12-22T01:34:26.842Z,7.30
2022-12-22T01:37:12.296Z,7.40
2022-12-22T01:39:58.947Z,7.40
2022-12-22T01:42:45.681Z,7.40
2022-12-22T01:45:39.139Z,7.30
2022-12-22T01:48:27.386Z,7.30
2022-12-22T01:51:12.813Z,7.20
2022-12-22T01:53:58.195Z,7.30
2022-12-22T01:56:45.466Z,7.30
2022-12-22T01:59:30.815Z,7.30
2022-12-22T02:02:17.521Z,7.20
2022-12-22T02:05:06.695Z,7.30
2022-12-22T02:08:14.347Z,7.20
2022-12-22T02:11:24.296Z,7.20
2022-12-22T02:14:32.484Z,7.20
2022-12-22T02:17:25.187Z,7.30
2022-12-22T02:20:43.273Z,7.30
2022-12-22T02:23:41.214Z,7.30
2022-12-22T02:26:41.904Z,7.40
2022-12-22T02:29:28.378Z,7.50
2022-12-22T02:32:13.648Z,7.50
2022-12-22T02:34:59.257Z,7.50
2022-12-22T02:37:54.417Z,7.60
2022-12-22T02:40:48.044Z,7.60
2022-12-22T02:43:47.240Z,7.60
2022-12-22T02:46:51.959Z,7.60
2022-12-22T02:49:43.186Z,7.50
2022-12-22T02:52:33.785Z,7.60
2022-12-22T02:55:20.103Z,7.50
2022-12-22T02:58:08.938Z,7.50
2022-12-22T03:00:55.876Z,7.30
2022-12-22T03:03:41.601Z,7.30
2022-12-22T03:06:27.270Z,7.20
2022-12-22T03:09:12.568Z,7.20
2022-12-22T03:11:57.857Z,7.30
2022-12-22T03:14:43.131Z,7.20
2022-12-22T03:17:29.750Z,7.20
2022-12-22T03:20:15.376Z,7.20
2022-12-22T03:23:00.891Z,7.20
2022-12-22T03:25:46.262Z,7.30
2022-12-22T03:28:14.305Z,7.30
2022-12-22T03:30:42.336Z,7.40
2022-12-22T03:33:11.749Z,7.40
2022-12-22T03:35:39.638Z,7.40
2022-12-22T03:38:07.662Z,7.40
2022-12-22T03:40:35.705Z,7.30
2022-12-22T03:43:20.972Z,7.20
2022-12-22T03:46:06.481Z,7.30
2022-12-22T03:48:36.116Z,7.30
2022-12-22T03:51:04.241Z,7.20
2022-12-22T03:53:32.299Z,7.30
2022-12-22T03:56:07.224Z,7.20
2022-12-22T03:58:35.686Z,7.30
2022-12-22T04:01:07.923Z,7.30
2022-12-22T04:03:37.551Z,7.40
2022-12-22T04:06:05.597Z,7.50
2022-12-22T04:08:33.527Z,7.40
2022-12-22T04:11:18.685Z,7.40
2022-12-22T04:13:46.788Z,7.40
2022-12-22T04:16:14.826Z,7.50
2022-12-22T04:18:44.181Z,7.60
2022-12-22T04:21:12.075Z,7.60
2022-12-22T04:23:40.053Z,7.60
2022-12-22T04:26:08.207Z,7.60
2022-12-22T04:28:36.287Z,7.40
2022-12-22T04:31:04.394Z,7.40
2022-12-22T04:33:32.375Z,7.40
2022-12-22T04:36:01.740Z,7.40
2022-12-22T04:38:29.755Z,7.50
2022-12-22T04:40:57.806Z,7.50
2022-12-22T04:43:27.075Z,7.60
2022-12-22T04:45:56.631Z,7.50
2022-12-22T04:48:43.699Z,7.50
2022-12-22T04:51:33.367Z,7.60
2022-12-22T04:54:21.615Z,7.60
2022-12-22T04:57:08.193Z,7.50
2022-12-22T04:59:36.092Z,7.60
2022-12-22T05:02:04.277Z,7.50
2022-12-22T05:04:32.495Z,7.50
2022-12-22T05:07:01.836Z,7.40
2022-12-22T05:09:29.723Z,7.40
2022-12-22T05:11:57.667Z,7.40
2022-12-22T05:14:25.625Z,7.40
2022-12-22T05:16:53.731Z,7.30
2022-12-22T05:19:24.960Z,7.30
2022-12-22T05:21:57.119Z,7.30
2022-12-22T05:24:26.574Z,7.30
2022-12-22T05:26:54.414Z,7.40
2022-12-22T05:29:22.520Z,7.40
2022-12-22T05:31:50.495Z,7.30
2022-12-22T05:34:18.465Z,7.50
2022-12-22T05:36:46.443Z,7.30
2022-12-22T05:39:14.448Z,7.20
2022-12-22T05:41:43.799Z,7.10
2022-12-22T05:44:11.824Z,6.90
2022-12-22T05:46:39.844Z,6.90
2022-12-22T05:49:07.923Z,7.00
2022-12-22T05:51:35.991Z,7.00
2022-12-22T05:54:03.991Z,7.10
2022-12-22T05:56:32.060Z,7.20
2022-12-22T05:59:01.389Z,7.30
2022-12-22T06:01:29.539Z,7.30
2022-12-22T06:04:00.393Z,7.30
2022-12-22T06:06:28.783Z,7.30
2022-12-22T06:08:56.861Z,7.30
2022-12-22T06:11:24.750Z,7.30
2022-12-22T06:13:52.662Z,7.40
2022-12-22T06:16:22.186Z,7.30
2022-12-22T06:18:50.117Z,7.30
2022-12-22T06:21:18.073Z,7.40
2022-12-22T06:23:46.003Z,7.30
2022-12-22T06:26:13.955Z,7.30
2022-12-22T06:28:42.047Z,7.30
2022-12-22T06:31:10.148Z,7.50
2022-12-22T06:33:39.499Z,7.50
2022-12-22T06:36:08.781Z,7.60
2022-12-22T06:38:36.801Z,7.50
2022-12-22T06:41:04.768Z,7.60
2022-12-22T06:43:31.681Z,7.60
2022-12-22T06:45:59.796Z,7.60
2022-12-22T06:48:27.830Z,7.50
2022-12-22T06:51:00.615Z,7.40
2022-12-22T06:53:28.990Z,7.40
2022-12-22T06:55:57.102Z,7.30
2022-12-22T06:58:25.184Z,7.30
2022-12-22T07:00:56.523Z,7.30
2022-12-22T07:03:24.629Z,7.20
2022-12-22T07:05:52.672Z,7.20
2022-12-22T07:08:22.104Z,7.10
2022-12-22T07:10:58.710Z,7.10
2022-12-22T07:13:28.710Z,7.10
2022-12-22T07:16:01.038Z,7.20
2022-12-22T07:18:31.254Z,7.10
2022-12-22T07:21:00.768Z,7.10
2022-12-22T07:23:30.576Z,7.10
2022-12-22T07:25:58.883Z,7.10
2022-12-22T07:28:26.942Z,7.20
2022-12-22T07:30:55.746Z,7.30
2022-12-22T07:33:24.006Z,7.40
2022-12-22T07:36:03.894Z,7.40
2022-12-22T07:38:35.777Z,7.40
2022-12-22T07:41:05.539Z,7.40
2022-12-22T07:43:32.795Z,7.50
2022-12-22T07:46:00.861Z,7.50
2022-12-22T07:48:46.050Z,7.50
2022-12-22T07:51:13.906Z,7.40
2022-12-22T07:53:43.280Z,7.40
2022-12-22T07:56:11.248Z,7.50
2022-12-22T07:58:39.185Z,7.60
2022-12-22T08:01:07.156Z,7.80
2022-12-22T08:03:35.081Z,7.90
2022-12-22T08:06:05.573Z,7.80
2022-12-22T08:08:34.759Z,7.80
2022-12-22T08:11:04.991Z,7.80
2022-12-22T08:13:33.126Z,7.80
2022-12-22T08:16:05.013Z,7.70
2022-12-22T08:18:33.826Z,7.70
2022-12-22T08:21:02.364Z,7.70
2022-12-22T08:23:49.279Z,7.70
2022-12-22T08:26:24.903Z,7.70
2022-12-22T08:28:56.320Z,7.70
2022-12-22T08:31:27.339Z,7.70
2022-12-22T08:33:56.977Z,7.90
2022-12-22T08:36:25.259Z,7.90
2022-12-22T08:38:53.502Z,7.90
2022-12-22T08:41:42.985Z,8.00
2022-12-22T08:44:11.597Z,8.10
2022-12-22T08:46:39.678Z,8.10
2022-12-22T08:49:07.625Z,8.00
2022-12-22T08:51:35.704Z,8.00
2022-12-22T08:54:05.443Z,8.00
2022-12-22T08:56:36.003Z,8.00
2022-12-22T08:59:07.677Z,7.90
2022-12-22T09:01:37.170Z,7.90
2022-12-22T09:04:06.753Z,7.80
2022-12-22T09:06:40.933Z,7.70
2022-12-22T09:09:12.606Z,7.70
2022-12-22T09:11:42.470Z,7.60
2022-12-22T09:14:11.393Z,7.60
2022-12-22T09:16:40.308Z,7.60
2022-12-22T09:19:08.487Z,7.60
2022-12-22T09:21:36.858Z,7.70
2022-12-22T09:24:07.433Z,7.70
2022-12-22T09:26:36.029Z,7.80
2022-12-22T09:29:05.701Z,7.80
2022-12-22T09:31:34.146Z,7.80
2022-12-22T09:34:02.356Z,7.80
2022-12-22T09:36:32.059Z,7.80
2022-12-22T09:39:00.348Z,7.80
2022-12-22T09:41:34.840Z,7.90
2022-12-22T09:44:07.396Z,8.00
2022-12-22T09:46:37.325Z,8.00
2022-12-22T09:49:06.939Z,8.10
2022-12-22T09:51:40.437Z,8.10
2022-12-22T09:54:11.703Z,8.10
2022-12-22T09:56:40.089Z,8.10
2022-12-22T09:59:12.693Z,8.20
2022-12-22T10:01:56.057Z,8.10
2022-12-22T10:04:36.948Z,8.20
2022-12-22T10:07:18.050Z,8.30
2022-12-22T10:09:50.393Z,8.30
2022-12-22T10:12:21.179Z,8.40
2022-12-22T10:14:52.702Z,8.60
2022-12-22T10:17:24.446Z,8.60
2022-12-22T10:19:54.319Z,8.80
2022-12-22T10:22:28.485Z,8.80
2022-12-22T10:24:56.524Z,8.80
2022-12-22T10:27:29.466Z,8.70
2022-12-22T10:30:21.484Z,8.90
2022-12-22T10:33:05.368Z,8.80
2022-12-22T10:35:48.981Z,8.80
2022-12-22T10:38:24.845Z,8.80
2022-12-22T10:41:01.817Z,8.80
2022-12-22T10:43:32.715Z,8.80
2022-12-22T10:46:03.361Z,8.60
2022-12-22T10:48:33.465Z,8.70
2022-12-22T10:51:02.644Z,8.50
2022-12-22T10:53:42.241Z,8.40
2022-12-22T10:56:19.340Z,8.40
2022-12-22T10:58:52.455Z,8.40
2022-12-22T11:01:33.042Z,8.50
2022-12-22T11:04:18.898Z,8.60
2022-12-22T11:06:46.950Z,8.50
2022-12-22T11:09:33.324Z,8.40
2022-12-22T11:12:11.754Z,8.40
2022-12-22T11:14:49.039Z,8.30
2022-12-22T11:17:49.141Z,8.20
2022-12-22T11:20:52.615Z,8.10
2022-12-22T11:23:27.501Z,8.10
2022-12-22T11:26:04.328Z,8.30
2022-12-22T11:28:51.121Z,8.40
2022-12-22T11:31:32.169Z,8.30
2022-12-22T11:34:14.460Z,8.40
2022-12-22T11:37:02.792Z,8.50
2022-12-22T11:39:45.245Z,8.60
2022-12-22T11:42:34.925Z,8.70
2022-12-22T11:45:36.338Z,8.70
2022-12-22T11:48:24.660Z,8.70
2022-12-22T11:51:01.616Z,8.70
2022-12-22T11:53:55.637Z,8.70
2022-12-22T11:56:26.261Z,8.60
2022-12-22T11:59:08.832Z,8.60
2022-12-22T12:01:52.074Z,8.60
2022-12-22T12:04:40.661Z,8.70
2022-12-22T12:07:25.841Z,8.70
2022-12-22T12:10:04.048Z,8.70
2022-12-22T12:12:43.913Z,8.70
2022-12-22T12:15:27.034Z,8.80
2022-12-22T12:18:21.209Z,8.70
2022-12-22T12:20:59.258Z,8.70
2022-12-22T12:24:11.332Z,8.80
2022-12-22T12:26:49.622Z,8.80
2022-12-22T12:29:21.307Z,8.80
2022-12-22T12:31:57.633Z,8.70
2022-12-22T12:34:28.076Z,8.50
2022-12-22T12:37:02.399Z,8.40
2022-12-22T12:39:38.770Z,8.60
2022-12-22T12:42:19.956Z,8.70
2022-12-22T12:44:52.170Z,8.80
2022-12-22T12:47:26.696Z,8.80
2022-12-22T12:49:56.848Z,8.80
2022-12-22T12:53:05.429Z,8.80
2022-12-22T12:55:51.743Z,8.70
2022-12-22T12:58:53.439Z,8.70
2022-12-22T13:01:56.978Z,8.80
2022-12-22T13:05:12.405Z,8.70
2022-12-22T13:08:14.380Z,8.60
2022-12-22T13:10:47.035Z,8.50
2022-12-22T13:13:29.827Z,8.50
2022-12-22T13:16:23.500Z,8.60
2022-12-22T13:18:52.876Z,8.40
2022-12-22T13:24:25.620Z,8.70
2022-12-22T13:27:01.682Z,8.80
2022-12-22T13:29:41.390Z,8.70
2022-12-22T13:32:21.379Z,8.60
2022-12-22T13:35:29.608Z,8.60
2022-12-22T13:37:48.511Z,8.50
2022-12-22T13:40:21.853Z,8.50
2022-12-22T13:42:54.439Z,8.40
2022-12-22T13:45:30.543Z,8.40
2022-12-22T13:48:00.777Z,8.40
2022-12-22T13:50:34.031Z,8.40
2022-12-22T13:53:04.071Z,8.40
2022-12-22T13:55:33.904Z,8.40
2022-12-22T13:58:08.095Z,8.30
2022-12-22T14:00:36.625Z,8.30
2022-12-22T14:03:27.644Z,8.40
2022-12-22T14:06:01.069Z,8.50
2022-12-22T14:08:29.205Z,8.40
2022-12-22T14:10:57.520Z,8.30
2022-12-22T14:13:32.320Z,8.30
2022-12-22T14:16:02.281Z,8.30
2022-12-22T14:18:31.956Z,8.30
2022-12-22T14:21:00.481Z,8.30
2022-12-22T14:23:30.600Z,8.30
2022-12-22T14:25:59.749Z,8.30
2022-12-22T14:28:33.190Z,8.20
2022-12-22T14:31:03.847Z,8.30
2022-12-22T14:33:33.842Z,8.30
2022-12-22T14:36:07.132Z,8.30
2022-12-22T14:38:41.385Z,8.40
2022-12-22T14:41:38.516Z,8.50
2022-12-22T14:44:13.178Z,8.50
2022-12-22T14:46:41.632Z,8.50
2022-12-22T14:49:15.424Z,8.50
2022-12-22T14:51:43.665Z,8.50
2022-12-22T14:54:21.323Z,8.60
2022-12-22T14:56:52.639Z,8.60
2022-12-22T14:59:27.518Z,8.50
2022-12-22T15:02:01.166Z,8.50
2022-12-22T15:04:30.143Z,8.50
2022-12-22T15:08:03.185Z,8.50
2022-12-22T15:10:16.912Z,8.50
2022-12-22T15:12:46.096Z,8.60
2022-12-22T15:15:18.655Z,8.50
2022-12-22T15:17:48.817Z,8.40
2022-12-22T15:20:20.747Z,8.50
2022-12-22T15:22:48.987Z,8.50
2022-12-22T15:25:19.392Z,8.40
2022-12-22T15:27:47.644Z,8.40
2022-12-22T15:30:19.378Z,8.50
2022-12-22T15:32:47.672Z,8.50
2022-12-22T15:35:21.711Z,8.50
2022-12-22T15:37:49.751Z,8.50
2022-12-22T15:40:20.903Z,8.40
2022-12-22T15:42:48.995Z,8.50
2022-12-22T15:45:19.498Z,8.40
2022-12-22T15:47:53.116Z,8.40
2022-12-22T15:50:22.992Z,8.30
2022-12-22T15:52:54.089Z,8.30
2022-12-22T15:55:22.699Z,8.40
2022-12-22T15:57:52.629Z,8.40
2022-12-22T16:00:23.339Z,8.40
2022-12-22T16:02:51.843Z,8.60
2022-12-22T16:05:19.988Z,8.70
2022-12-22T16:07:47.903Z,8.80
2022-12-22T16:10:22.895Z,8.90
2022-12-22T16:12:54.572Z,9.00
2022-12-22T16:15:23.925Z,9.10
2022-12-22T16:17:53.018Z,9.20
2022-12-22T16:20:21.266Z,9.30
2022-12-22T16:22:51.353Z,9.30
2022-12-22T16:25:24.003Z,9.40
2022-12-22T16:27:52.091Z,9.40
2022-12-22T16:30:22.405Z,9.30
2022-12-22T16:32:52.135Z,9.40
2022-12-22T16:35:22.806Z,9.40
2022-12-22T16:37:51.364Z,9.40
2022-12-22T16:40:20.462Z,9.40
2022-12-22T16:45:38.802Z,9.40
2022-12-22T16:48:13.405Z,9.40
2022-12-22T16:50:46.217Z,9.40
2022-12-22T16:53:15.320Z,9.40
2022-12-22T16:55:43.917Z,9.40
2022-12-22T16:58:13.973Z,9.30
2022-12-22T17:00:45.827Z,9.30
2022-12-22T17:03:17.940Z,9.30
2022-12-22T17:05:56.487Z,9.30
2022-12-22T17:08:26.992Z,9.30
2022-12-22T17:10:57.659Z,9.30
2022-12-22T17:13:26.328Z,9.30
2022-12-22T17:15:54.453Z,9.30
2022-12-22T17:18:26.725Z,9.20
2022-12-22T17:20:58.368Z,9.20
2022-12-22T17:23:33.405Z,9.20
2022-12-22T17:26:04.130Z,9.20
2022-12-22T17:28:33.872Z,9.20
2022-12-22T17:31:02.295Z,9.10
2022-12-22T17:33:32.378Z,9.10
2022-12-22T17:36:01.645Z,9.10
2022-12-22T17:38:29.904Z,9.10
2022-12-22T17:40:57.950Z,9.10
2022-12-22T17:43:26.020Z,9.00
2022-12-22T17:45:54.335Z,9.00
2022-12-22T17:48:22.793Z,9.00
2022-12-22T17:50:52.279Z,9.00
2022-12-22T17:53:21.301Z,9.00
2022-12-22T17:56:07.919Z,8.90
2022-12-22T17:58:37.085Z,8.90
2022-12-22T18:01:05.607Z,8.90
2022-12-22T18:03:33.866Z,8.80
2022-12-22T18:06:03.389Z,8.80
2022-12-22T18:08:31.722Z,8.80
2022-12-22T18:11:00.151Z,8.80
2022-12-22T18:13:28.344Z,8.80
2022-12-22T18:15:56.630Z,8.80
2022-12-22T18:18:24.844Z,8.80
2022-12-22T18:21:07.410Z,8.80
2022-12-22T18:23:38.360Z,8.80
2022-12-22T18:26:08.577Z,8.70
2022-12-22T18:28:37.166Z,8.70
2022-12-22T18:31:05.424Z,8.70
2022-12-22T18:33:33.542Z,8.70
2022-12-22T18:36:01.811Z,8.70
2022-12-22T18:38:32.863Z,8.70
2022-12-22T18:41:02.250Z,8.70
2022-12-22T18:43:30.112Z,8.60
2022-12-22T18:45:58.042Z,8.60
2022-12-22T18:48:25.951Z,8.70
2022-12-22T18:50:54.071Z,8.70
2022-12-22T18:53:27.645Z,8.70
2022-12-22T18:55:56.321Z,8.70
2022-12-22T18:58:27.067Z,8.70
2022-12-22T19:00:56.929Z,8.70
2022-12-22T19:03:29.133Z,8.70
2022-12-22T19:05:57.743Z,8.70
2022-12-22T19:08:27.794Z,8.70
2022-12-22T19:10:57.684Z,8.60
2022-12-22T19:13:31.935Z,8.60
2022-12-22T19:16:00.119Z,8.60
2022-12-22T19:18:28.953Z,8.60
2022-12-22T19:20:57.314Z,8.60
2022-12-22T19:23:27.065Z,8.60
2022-12-22T19:26:02.132Z,8.60
2022-12-22T19:28:35.574Z,8.60
2022-12-22T19:31:04.551Z,8.60
2022-12-22T19:33:37.014Z,8.60
2022-12-22T19:36:06.162Z,8.60
2022-12-22T19:38:35.742Z,8.60
2022-12-22T19:41:06.804Z,8.60
2022-12-22T19:43:36.308Z,8.60
2022-12-22T19:46:05.252Z,8.70
2022-12-22T19:48:33.431Z,8.60
2022-12-22T19:51:01.360Z,8.60
2022-12-22T19:53:29.344Z,8.60
2022-12-22T19:55:58.486Z,8.60
2022-12-22T19:58:31.937Z,8.60
2022-12-22T20:01:01.467Z,8.60
2022-12-22T20:03:29.608Z,8.60
2022-12-22T20:05:57.650Z,8.70
2022-12-22T20:08:25.643Z,8.60
2022-12-22T20:10:58.342Z,8.60
2022-12-22T20:13:28.066Z,8.60
2022-12-22T20:15:55.963Z,8.60
2022-12-22T20:18:29.118Z,8.60
2022-12-22T20:21:02.005Z,8.60
2022-12-22T20:23:32.967Z,8.60
2022-12-22T20:26:04.137Z,8.50
2022-12-22T20:28:34.778Z,8.50
2022-12-22T20:31:03.522Z,8.60
2022-12-22T20:33:33.499Z,8.60
2022-12-22T20:36:03.461Z,8.60
2022-12-22T20:38:35.615Z,8.60
2022-12-22T20:41:05.115Z,8.50
2022-12-22T20:43:34.466Z,8.50
2022-12-22T20:46:08.240Z,8.50
2022-12-22T20:48:40.355Z,8.50
2022-12-22T20:51:11.390Z,8.50
2022-12-22T20:53:39.427Z,8.60
2022-12-22T20:56:11.982Z,8.50
2022-12-22T20:58:40.050Z,8.50
2022-12-22T21:01:07.961Z,8.50
2022-12-22T21:03:37.547Z,8.50
2022-12-22T21:06:21.868Z,8.50
2022-12-22T21:08:49.755Z,8.50
2022-12-22T21:11:17.795Z,8.50
2022-12-22T21:13:46.348Z,8.40
2022-12-22T21:16:17.131Z,8.40
2022-12-22T21:18:47.174Z,8.40
2022-12-22T21:21:15.171Z,8.40
2022-12-22T21:23:43.146Z,8.40
2022-12-22T21:26:20.655Z,8.40
2022-12-22T21:28:48.826Z,8.30
2022-12-22T21:31:16.857Z,8.30
2022-12-22T21:33:47.220Z,8.30
2022-12-22T21:36:20.895Z,8.30
2022-12-22T21:38:49.601Z,8.30
2022-12-22T21:41:17.528Z,8.20
2022-12-22T21:43:45.780Z,8.20
2022-12-22T21:46:14.431Z,8.20
2022-12-22T21:48:42.314Z,8.30
2022-12-22T21:51:14.047Z,8.20
2022-12-22T21:53:42.168Z,8.20
2022-12-22T21:56:18.137Z,8.10
2022-12-22T21:58:46.275Z,8.10
2022-12-22T22:01:15.325Z,8.10
2022-12-22T22:03:43.612Z,8.10
2022-12-22T22:06:12.920Z,8.10
2022-12-22T22:08:41.141Z,8.10
2022-12-22T22:11:18.029Z,8.10
2022-12-22T22:13:46.061Z,8.10
2022-12-22T22:16:14.511Z,8.10
2022-12-22T22:18:43.139Z,8.10
2022-12-22T22:21:14.843Z,8.10
2022-12-22T22:23:43.595Z,8.10
2022-12-22T22:26:12.273Z,8.10
2022-12-22T22:28:40.246Z,8.10
2022-12-22T22:31:11.676Z,8.10
2022-12-22T22:33:39.919Z,8.10
2022-12-22T22:36:08.748Z,8.10
2022-12-22T22:38:38.015Z,8.10
2022-12-22T22:41:06.145Z,8.10
2022-12-22T22:43:34.169Z,8.10
2022-12-22T22:46:02.156Z,8.00
2022-12-22T22:48:30.126Z,8.00
2022-12-22T22:50:58.089Z,8.00
2022-12-22T22:53:26.058Z,8.00
2022-12-22T22:55:55.365Z,8.00
2022-12-22T22:58:26.164Z,8.00
2022-12-22T23:00:54.315Z,8.00
2022-12-22T23:03:23.094Z,7.90
2022-12-22T23:05:51.192Z,7.90
2022-12-22T23:08:19.268Z,7.90
2022-12-22T23:10:49.766Z,7.90
2022-12-22T23:13:19.327Z,7.90
2022-12-22T23:15:54.794Z,7.80
2022-12-22T23:18:23.328Z,7.80
2022-12-22T23:20:51.375Z,7.80
2022-12-22T23:23:20.141Z,7.80
2022-12-22T23:25:50.901Z,7.80
2022-12-22T23:28:20.393Z,7.80
2022-12-22T23:30:50.572Z,7.70
2022-12-22T23:33:18.919Z,7.70
2022-12-22T23:35:49.046Z,7.70
2022-12-22T23:38:18.309Z,7.70
2022-12-22T23:40:54.728Z,7.60
2022-12-22T23:43:24.279Z,7.60
2022-12-22T23:45:52.316Z,7.60
2022-12-22T23:48:20.217Z,7.60
2022-12-22T23:50:48.571Z,7.60
2022-12-22T23:53:16.557Z,7.60
2022-12-22T23:55:44.587Z,7.60
2022-12-22T23:58:12.969Z,7.60
